createdAt,value
2022-11-18T00:00:54.569Z,29.17
2022-11-18T00:03:43.228Z,27.07
2022-11-18T00:06:30.887Z,26.47
2022-11-18T00:09:18.248Z,29.10
2022-11-18T00:12:26.535Z,28.57
2022-11-18T00:15:15.762Z,26.73
2022-11-18T00:18:04.909Z,27.30
2022-11-18T00:20:52.233Z,28.83
2022-11-18T00:23:41.790Z,29.47
2022-11-18T00:26:29.160Z,27.13
2022-11-18T00:29:17.069Z,27.97
2022-11-18T00:32:04.329Z,30.07
2022-11-18T00:34:51.266Z,25.73
2022-11-18T00:37:38.206Z,28.87
2022-11-18T00:40:25.810Z,27.53
2022-11-18T00:43:12.702Z,26.73
2022-11-18T00:45:59.896Z,26.30
2022-11-18T00:48:46.798Z,30.00
2022-11-18T00:51:33.800Z,30.07
2022-11-18T00:54:21.059Z,28.33
2022-11-18T00:57:08.021Z,23.77
2022-11-18T00:59:54.971Z,24.70
2022-11-18T01:02:43.951Z,23.63
2022-11-18T01:05:32.093Z,24.17
2022-11-18T01:08:20.128Z,24.30
2022-11-18T01:11:26.857Z,22.33
2022-11-18T01:14:15.041Z,24.43
2022-11-18T01:17:03.320Z,22.07
2022-11-18T01:19:50.338Z,22.27
2022-11-18T01:22:38.227Z,23.60
2022-11-18T01:25:26.187Z,24.30
2022-11-18T01:28:16.537Z,22.83
2022-11-18T01:31:12.792Z,24.57
2022-11-18T01:33:59.857Z,21.97
2022-11-18T01:36:46.876Z,22.80
2022-11-18T01:39:34.092Z,22.80
2022-11-18T01:42:22.005Z,22.43
2022-11-18T01:45:28.445Z,23.43
2022-11-18T01:48:21.012Z,20.97
2022-11-18T01:51:12.607Z,23.90
2022-11-18T01:54:22.065Z,23.07
2022-11-18T01:57:17.041Z,20.90
2022-11-18T02:00:06.313Z,20.33
2022-11-18T02:02:54.083Z,22.50
2022-11-18T02:05:43.344Z,21.07
2022-11-18T02:08:32.063Z,21.43
2022-11-18T02:11:38.570Z,22.47
2022-11-18T02:14:31.987Z,22.23
2022-11-18T02:17:58.949Z,22.43
2022-11-18T02:20:47.842Z,20.10
2022-11-18T02:23:41.534Z,20.40
2022-11-18T02:26:34.946Z,22.30
2022-11-18T02:29:29.025Z,20.40
2022-11-18T02:32:19.665Z,21.37
2022-11-18T02:35:14.849Z,20.27
2022-11-18T02:38:11.038Z,22.23
2022-11-18T02:41:14.065Z,21.40
2022-11-18T02:44:18.538Z,22.40
2022-11-18T02:47:07.930Z,24.13
2022-11-18T02:49:58.789Z,26.30
2022-11-18T02:52:47.427Z,21.97
2022-11-18T02:55:37.980Z,23.73
2022-11-18T02:58:26.044Z,25.23
2022-11-18T03:01:27.238Z,24.47
2022-11-18T03:04:16.779Z,22.87
2022-11-18T03:07:11.132Z,24.20
2022-11-18T03:09:59.888Z,24.87
2022-11-18T03:13:12.247Z,23.93
2022-11-18T03:16:09.953Z,23.17
2022-11-18T03:19:15.243Z,24.17
2022-11-18T03:22:30.743Z,25.17
2022-11-18T03:25:23.436Z,25.63
2022-11-18T03:28:23.423Z,24.80
2022-11-18T03:31:23.194Z,23.53
2022-11-18T03:34:20.504Z,25.23
2022-11-18T03:37:10.903Z,26.90
2022-11-18T03:40:04.024Z,28.07
2022-11-18T03:42:56.449Z,29.47
2022-11-18T03:45:47.614Z,27.73
2022-11-18T03:48:40.262Z,24.73
2022-11-18T03:51:33.423Z,29.53
2022-11-18T03:54:24.837Z,27.67
2022-11-18T03:57:16.952Z,26.53
2022-11-18T04:00:09.502Z,26.80
2022-11-18T04:02:56.496Z,25.40
2022-11-18T04:05:43.897Z,27.93
2022-11-18T04:08:36.373Z,26.87
2022-11-18T04:11:54.708Z,26.03
2022-11-18T04:14:44.370Z,24.47
2022-11-18T04:17:31.328Z,25.77
2022-11-18T04:20:21.558Z,24.27
2022-11-18T04:23:09.384Z,24.23
2022-11-18T04:25:57.262Z,23.80
2022-11-18T04:28:44.204Z,25.70
2022-11-18T04:31:31.112Z,23.30
2022-11-18T04:34:18.061Z,23.87
2022-11-18T04:37:05.195Z,23.70
2022-11-18T04:39:52.434Z,26.57
2022-11-18T04:42:39.426Z,25.60
2022-11-18T04:45:26.348Z,24.70
2022-11-18T04:48:13.261Z,25.00
2022-11-18T04:51:04.506Z,26.20
2022-11-18T04:53:51.395Z,24.33
2022-11-18T04:56:42.792Z,25.13
2022-11-18T04:59:32.732Z,23.80
2022-11-18T05:02:19.659Z,24.97
2022-11-18T05:05:07.197Z,22.53
2022-11-18T05:07:54.122Z,27.27
2022-11-18T05:10:41.052Z,24.77
2022-11-18T05:13:27.963Z,22.90
2022-11-18T05:16:14.855Z,23.97
2022-11-18T05:19:03.193Z,23.87
2022-11-18T05:21:50.359Z,24.03
2022-11-18T05:24:37.293Z,25.47
2022-11-18T05:27:24.235Z,27.63
2022-11-18T05:30:11.809Z,25.60
2022-11-18T05:32:58.765Z,24.67
2022-11-18T05:35:45.688Z,21.80
2022-11-18T05:38:33.768Z,25.70
2022-11-18T05:41:41.068Z,27.77
2022-11-18T05:44:28.007Z,31.50
2022-11-18T05:47:14.996Z,32.10
2022-11-18T05:50:02.993Z,35.23
2022-11-18T05:52:50.051Z,35.70
2022-11-18T05:56:01.627Z,35.33
2022-11-18T05:58:48.609Z,39.17
2022-11-18T06:01:43.667Z,46.50
2022-11-18T06:04:46.270Z,40.40
2022-11-18T06:07:37.983Z,36.50
2022-11-18T06:10:30.203Z,41.17
2022-11-18T06:13:21.570Z,44.20
2022-11-18T06:16:08.810Z,50.10
2022-11-18T06:18:57.092Z,49.47
2022-11-18T06:21:46.300Z,47.00
2022-11-18T06:24:33.691Z,51.43
2022-11-18T06:27:21.381Z,51.97
2022-11-18T06:30:09.725Z,52.47
2022-11-18T06:32:57.479Z,56.10
2022-11-18T06:35:45.430Z,60.73
2022-11-18T06:38:32.643Z,55.07
2022-11-18T06:41:20.562Z,51.50
2022-11-18T06:44:08.592Z,53.50
2022-11-18T06:46:56.088Z,44.93
2022-11-18T06:49:43.897Z,37.83
2022-11-18T06:52:31.808Z,38.70
2022-11-18T06:55:19.254Z,32.20
2022-11-18T06:58:06.681Z,27.90
2022-11-18T07:00:53.983Z,30.10
2022-11-18T07:03:42.471Z,28.53
2022-11-18T07:06:31.143Z,28.00
2022-11-18T07:09:18.578Z,26.93
2022-11-18T07:12:06.505Z,27.70
2022-11-18T07:14:53.619Z,27.50
2022-11-18T07:17:41.262Z,24.00
2022-11-18T07:20:28.775Z,26.47
2022-11-18T07:23:16.546Z,27.23
2022-11-18T07:26:05.246Z,24.73
2022-11-18T07:28:54.195Z,26.43
2022-11-18T07:31:42.685Z,24.50
2022-11-18T07:34:30.004Z,22.07
2022-11-18T07:37:18.036Z,24.00
2022-11-18T07:40:06.286Z,24.70
2022-11-18T07:42:54.720Z,19.60
2022-11-18T07:45:42.661Z,17.83
2022-11-18T07:48:30.802Z,20.80
2022-11-18T07:51:20.329Z,19.23
2022-11-18T07:54:09.563Z,20.27
2022-11-18T07:56:56.713Z,17.97
2022-11-18T07:59:44.007Z,15.80
2022-11-18T08:02:31.201Z,16.17
2022-11-18T08:05:19.139Z,16.10
2022-11-18T08:08:06.347Z,14.97
2022-11-18T08:10:57.824Z,15.00
2022-11-18T08:13:45.551Z,17.70
2022-11-18T08:16:32.506Z,14.90
2022-11-18T08:19:20.420Z,17.87
2022-11-18T08:22:07.647Z,12.80
2022-11-18T08:24:54.697Z,17.37
2022-11-18T08:27:42.117Z,12.97
2022-11-18T08:30:29.341Z,11.83
2022-11-18T08:33:16.512Z,13.77
2022-11-18T08:36:14.405Z,11.03
2022-11-18T08:39:04.226Z,12.37
2022-11-18T08:41:51.204Z,10.50
2022-11-18T08:44:38.848Z,12.03
2022-11-18T08:47:25.967Z,12.23
2022-11-18T08:50:13.345Z,11.60
2022-11-18T08:53:01.168Z,11.83
2022-11-18T08:55:53.052Z,11.80
2022-11-18T08:58:44.765Z,13.87
2022-11-18T09:01:32.432Z,12.83
2022-11-18T09:04:19.823Z,11.67
2022-11-18T09:07:06.893Z,11.50
2022-11-18T09:09:53.977Z,10.73
2022-11-18T09:12:41.552Z,12.23
2022-11-18T09:15:29.803Z,11.57
2022-11-18T09:18:17.261Z,12.30
2022-11-18T09:21:07.827Z,11.23
2022-11-18T09:23:55.609Z,13.27
2022-11-18T09:26:42.783Z,11.70
2022-11-18T09:29:29.728Z,11.67
2022-11-18T09:32:17.121Z,12.73
2022-11-18T09:35:04.642Z,12.90
2022-11-18T09:37:53.239Z,13.13
2022-11-18T09:40:56.609Z,13.20
2022-11-18T09:44:03.151Z,13.67
2022-11-18T09:47:09.573Z,12.67
2022-11-18T09:50:20.422Z,12.40
2022-11-18T09:53:24.540Z,9.43
2022-11-18T09:56:16.569Z,10.33
2022-11-18T09:59:04.813Z,10.67
2022-11-18T10:01:55.159Z,10.67
2022-11-18T10:04:42.544Z,11.80
2022-11-18T10:08:06.483Z,12.37
2022-11-18T10:11:17.080Z,12.33
2022-11-18T10:14:36.073Z,9.27
2022-11-18T10:17:41.757Z,8.07
2022-11-18T10:21:04.594Z,8.63
2022-11-18T10:24:02.479Z,11.67
2022-11-18T10:26:55.833Z,8.97
2022-11-18T10:29:45.129Z,8.77
2022-11-18T10:32:32.569Z,7.27
2022-11-18T10:35:27.959Z,7.67
2022-11-18T10:38:15.453Z,6.40
2022-11-18T10:41:04.451Z,6.50
2022-11-18T10:43:53.380Z,7.03
2022-11-18T10:46:41.149Z,5.60
2022-11-18T10:49:29.427Z,5.50
2022-11-18T10:52:17.526Z,6.23
2022-11-18T10:55:22.335Z,5.77
2022-11-18T10:58:16.267Z,5.30
2022-11-18T11:01:24.542Z,5.70
2022-11-18T11:04:23.847Z,6.07
2022-11-18T11:07:18.331Z,8.20
2022-11-18T11:10:09.087Z,4.27
2022-11-18T11:13:05.634Z,4.90
2022-11-18T11:15:54.408Z,6.20
2022-11-18T11:18:42.185Z,5.03
2022-11-18T11:21:30.837Z,4.90
2022-11-18T11:24:18.789Z,5.97
2022-11-18T11:30:17.303Z,4.67
2022-11-18T11:33:11.863Z,5.43
2022-11-18T11:36:18.222Z,5.13
2022-11-18T11:39:22.491Z,5.57
2022-11-18T11:42:30.496Z,4.47
2022-11-18T11:45:36.483Z,5.93
2022-11-18T11:48:33.545Z,4.63
2022-11-18T11:51:27.443Z,8.70
2022-11-18T11:54:21.243Z,6.77
2022-11-18T11:57:19.249Z,5.93
2022-11-18T12:00:11.107Z,4.90
2022-11-18T12:03:02.476Z,4.47
2022-11-18T12:05:50.207Z,6.37
2022-11-18T12:08:38.927Z,4.17
2022-11-18T12:11:35.352Z,4.80
2022-11-18T12:14:40.017Z,5.57
2022-11-18T12:17:40.679Z,5.53
2022-11-18T12:20:37.368Z,4.27
2022-11-18T12:23:27.397Z,6.60
2022-11-18T12:26:33.744Z,4.53
2022-11-18T12:29:21.499Z,8.17
2022-11-18T12:32:27.621Z,6.77
2022-11-18T12:35:27.228Z,6.93
2022-11-18T12:38:38.193Z,6.47
2022-11-18T12:41:59.872Z,5.13
2022-11-18T12:44:51.439Z,4.10
2022-11-18T12:47:42.224Z,5.50
2022-11-18T12:50:48.885Z,4.17
2022-11-18T12:53:38.862Z,4.67
2022-11-18T12:56:30.800Z,5.63
2022-11-18T12:59:27.076Z,4.93
2022-11-18T13:02:19.865Z,5.57
2022-11-18T13:05:07.336Z,6.40
2022-11-18T13:08:13.374Z,4.37
2022-11-18T13:11:25.963Z,3.87
2022-11-18T13:14:37.231Z,4.17
2022-11-18T13:17:45.570Z,6.90
2022-11-18T13:20:37.482Z,3.60
2022-11-18T13:23:45.800Z,4.77
2022-11-18T13:26:35.276Z,3.00
2022-11-18T13:29:41.441Z,3.97
2022-11-18T13:32:29.863Z,4.90
2022-11-18T13:35:19.499Z,4.57
2022-11-18T13:38:11.743Z,5.80
2022-11-18T13:41:05.032Z,2.87
2022-11-18T13:43:54.203Z,6.80
2022-11-18T13:46:42.933Z,6.73
2022-11-18T13:49:38.169Z,7.13
2022-11-18T13:52:29.851Z,9.10
2022-11-18T13:55:27.496Z,11.00
2022-11-18T13:59:15.599Z,8.20
2022-11-18T14:02:00.879Z,4.03
2022-11-18T14:04:50.292Z,3.47
2022-11-18T14:07:38.188Z,3.70
2022-11-18T14:10:38.084Z,6.20
2022-11-18T14:13:44.407Z,2.80
2022-11-18T14:16:33.927Z,3.73
2022-11-18T14:19:32.502Z,2.67
2022-11-18T14:22:21.456Z,3.13
2022-11-18T14:25:18.469Z,3.00
2022-11-18T14:28:18.443Z,2.90
2022-11-18T14:31:18.089Z,2.77
2022-11-18T14:34:14.527Z,3.87
2022-11-18T14:37:02.028Z,2.33
2022-11-18T14:39:55.765Z,4.43
2022-11-18T14:42:43.386Z,3.60
2022-11-18T14:45:30.846Z,2.03
2022-11-18T14:48:19.772Z,3.50
2022-11-18T14:51:07.625Z,3.43
2022-11-18T14:53:55.304Z,5.20
2022-11-18T14:56:43.454Z,4.40
2022-11-18T14:59:30.850Z,3.20
2022-11-18T15:02:18.894Z,3.40
2022-11-18T15:05:06.529Z,3.80
2022-11-18T15:07:54.241Z,3.10
2022-11-18T15:10:41.900Z,3.80
2022-11-18T15:13:29.536Z,3.27
2022-11-18T15:16:18.520Z,3.87
2022-11-18T15:19:06.843Z,3.87
2022-11-18T15:21:54.290Z,4.20
2022-11-18T15:24:41.715Z,2.50
2022-11-18T15:27:29.211Z,3.40
2022-11-18T15:30:16.854Z,2.97
2022-11-18T15:33:04.457Z,7.83
2022-11-18T15:35:51.858Z,24.33
2022-11-18T15:38:39.237Z,19.63
2022-11-18T15:41:27.823Z,6.60
2022-11-18T15:44:15.688Z,27.53
2022-11-18T15:47:03.303Z,23.40
2022-11-18T15:49:50.710Z,10.93
2022-11-18T15:52:38.151Z,12.67
2022-11-18T15:55:25.541Z,6.90
2022-11-18T15:58:12.867Z,6.90
2022-11-18T16:01:00.290Z,7.07
2022-11-18T16:03:48.331Z,3.87
2022-11-18T16:06:36.215Z,3.93
2022-11-18T16:09:23.807Z,4.50
2022-11-18T16:12:29.969Z,5.60
2022-11-18T16:15:36.706Z,4.60
2022-11-18T16:18:24.262Z,26.50
2022-11-18T16:21:11.628Z,8.97
2022-11-18T16:23:59.544Z,4.47
2022-11-18T16:26:47.247Z,5.67
2022-11-18T16:29:34.662Z,4.70
2022-11-18T16:32:22.047Z,8.43
2022-11-18T16:35:09.615Z,10.73
2022-11-18T16:37:57.018Z,6.03
2022-11-18T16:40:44.413Z,6.10
2022-11-18T16:43:31.766Z,6.70
2022-11-18T16:46:19.165Z,2.90
2022-11-18T16:49:07.887Z,4.30
2022-11-18T16:51:56.289Z,3.10
2022-11-18T16:54:46.009Z,4.47
2022-11-18T16:57:33.759Z,4.00
2022-11-18T17:00:32.341Z,3.50
2022-11-18T17:03:25.302Z,2.53
2022-11-18T17:06:12.656Z,5.70
2022-11-18T17:09:00.246Z,3.63
2022-11-18T17:11:48.115Z,3.33
2022-11-18T17:14:37.988Z,4.40
2022-11-18T17:17:25.397Z,4.00
2022-11-18T17:20:12.801Z,4.50
2022-11-18T17:23:00.155Z,5.43
2022-11-18T17:25:47.570Z,4.50
2022-11-18T17:28:35.978Z,3.67
2022-11-18T17:31:24.242Z,5.60
2022-11-18T17:34:12.986Z,3.67
2022-11-18T17:37:06.146Z,4.47
2022-11-18T17:39:53.998Z,4.27
2022-11-18T17:42:41.375Z,5.33
2022-11-18T17:45:28.774Z,4.67
2022-11-18T17:48:15.707Z,7.43
2022-11-18T17:51:04.144Z,7.73
2022-11-18T17:53:51.187Z,6.30
2022-11-18T17:56:38.418Z,8.57
2022-11-18T17:59:25.508Z,8.10
2022-11-18T18:02:12.895Z,8.80
2022-11-18T18:04:59.897Z,13.57
2022-11-18T18:07:48.293Z,28.43
2022-11-18T18:10:39.458Z,32.20
2022-11-18T18:13:45.442Z,21.10
2022-11-18T18:16:33.694Z,9.57
2022-11-18T18:19:22.951Z,9.50
2022-11-18T18:22:09.953Z,10.10
2022-11-18T18:24:56.948Z,8.87
2022-11-18T18:27:43.887Z,7.73
2022-11-18T18:30:30.869Z,8.13
2022-11-18T18:33:17.852Z,8.63
2022-11-18T18:36:09.341Z,13.73
2022-11-18T18:38:57.003Z,8.67
2022-11-18T18:41:44.115Z,9.83
2022-11-18T18:44:51.057Z,10.43
2022-11-18T18:47:38.083Z,9.10
2022-11-18T18:50:29.514Z,11.63
2022-11-18T18:53:16.881Z,9.53
2022-11-18T18:56:03.941Z,12.03
2022-11-18T18:58:50.946Z,9.97
2022-11-18T19:01:38.969Z,11.17
2022-11-18T19:04:26.245Z,10.47
2022-11-18T19:07:13.289Z,9.10
2022-11-18T19:10:00.336Z,11.07
2022-11-18T19:12:52.015Z,7.60
2022-11-18T19:15:39.032Z,10.13
2022-11-18T19:18:26.367Z,9.03
2022-11-18T19:21:13.488Z,11.27
2022-11-18T19:24:04.346Z,10.03
2022-11-18T19:26:51.321Z,10.97
2022-11-18T19:29:38.473Z,10.03
2022-11-18T19:32:25.464Z,8.30
2022-11-18T19:35:12.703Z,8.03
2022-11-18T19:37:59.689Z,10.03
2022-11-18T19:40:46.676Z,10.30
2022-11-18T19:43:34.041Z,10.03
2022-11-18T19:46:21.080Z,9.30
2022-11-18T19:49:09.314Z,10.40
2022-11-18T19:51:56.287Z,8.97
2022-11-18T19:54:44.502Z,9.37
2022-11-18T19:57:31.929Z,5.90
2022-11-18T20:00:19.315Z,6.03
2022-11-18T20:03:06.285Z,9.73
2022-11-18T20:05:53.355Z,5.87
2022-11-18T20:08:40.970Z,5.30
2022-11-18T20:11:28.153Z,5.50
2022-11-18T20:14:15.126Z,4.80
2022-11-18T20:17:02.256Z,7.33
2022-11-18T20:19:49.229Z,4.73
2022-11-18T20:22:36.188Z,5.17
2022-11-18T20:25:23.126Z,5.43
2022-11-18T20:28:12.331Z,5.07
2022-11-18T20:31:00.615Z,5.13
2022-11-18T20:33:50.279Z,6.37
2022-11-18T20:36:37.239Z,5.17
2022-11-18T20:39:24.334Z,5.17
2022-11-18T20:42:29.998Z,7.17
2022-11-18T20:45:16.907Z,6.87
2022-11-18T20:48:04.229Z,4.90
2022-11-18T20:50:51.285Z,9.57
2022-11-18T20:53:41.830Z,4.17
2022-11-18T20:56:28.851Z,5.43
2022-11-18T20:59:16.623Z,4.87
2022-11-18T21:02:03.863Z,7.43
2022-11-18T21:04:52.055Z,7.13
2022-11-18T21:07:39.097Z,6.57
2022-11-18T21:10:26.239Z,5.70
2022-11-18T21:13:31.882Z,16.30
2022-11-18T21:16:20.211Z,15.00
2022-11-18T21:19:07.680Z,16.77
2022-11-18T21:21:55.709Z,19.20
2022-11-18T21:24:42.827Z,19.03
2022-11-18T21:27:29.812Z,17.97
2022-11-18T21:30:19.148Z,18.03
2022-11-18T21:33:06.616Z,15.77
2022-11-18T21:35:53.696Z,12.67
2022-11-18T21:38:40.667Z,12.20
2022-11-18T21:41:29.203Z,9.00
2022-11-18T21:44:16.287Z,10.60
2022-11-18T21:47:07.361Z,9.07
2022-11-18T21:49:54.260Z,6.83
2022-11-18T21:52:41.267Z,7.13
2022-11-18T21:55:28.164Z,7.90
2022-11-18T21:58:15.151Z,6.83
2022-11-18T22:01:15.298Z,7.37
2022-11-18T22:04:04.653Z,7.90
2022-11-18T22:06:51.641Z,7.27
2022-11-18T22:09:38.559Z,8.20
2022-11-18T22:12:25.632Z,6.70
2022-11-18T22:15:12.699Z,13.57
2022-11-18T22:17:59.703Z,7.20
2022-11-18T22:20:46.637Z,8.90
2022-11-18T22:23:34.287Z,8.33
2022-11-18T22:26:21.639Z,6.60
2022-11-18T22:29:08.616Z,8.37
2022-11-18T22:31:55.577Z,10.70
2022-11-18T22:34:42.570Z,7.60
2022-11-18T22:37:29.518Z,8.10
2022-11-18T22:40:16.678Z,9.13
2022-11-18T22:43:03.984Z,9.00
2022-11-18T22:46:01.022Z,10.37
2022-11-18T22:48:47.952Z,8.57
2022-11-18T22:51:35.819Z,10.37
2022-11-18T22:54:38.294Z,8.67
2022-11-18T22:57:26.084Z,7.37
2022-11-18T23:00:13.756Z,8.27
2022-11-18T23:03:00.746Z,11.27
2022-11-18T23:05:47.772Z,9.27
2022-11-18T23:08:37.495Z,8.60
2022-11-18T23:11:43.403Z,9.70
2022-11-18T23:14:31.709Z,7.97
2022-11-18T23:17:18.665Z,8.47
2022-11-18T23:20:06.306Z,9.03
2022-11-18T23:22:53.691Z,9.60
2022-11-18T23:25:41.098Z,8.27
2022-11-18T23:28:28.849Z,8.07
2022-11-18T23:31:20.204Z,11.17
2022-11-18T23:34:07.561Z,7.73
2022-11-18T23:36:54.486Z,6.77
2022-11-18T23:39:41.462Z,9.07
2022-11-18T23:42:28.375Z,10.47
2022-11-18T23:45:15.376Z,8.70
2022-11-18T23:48:02.595Z,6.80
2022-11-18T23:51:02.870Z,6.43
2022-11-18T23:53:55.285Z,8.77
2022-11-18T23:56:42.241Z,7.63
2022-11-18T23:59:29.157Z,6.10
